Terminal Aerodrome Forecast
Issued by NWS Mt. Holly, NJ

Home | Current Version | Previous Version | Text Only | Print | Product List | Glossary On
Versions: 1 2 3 4 5 6 7 8 9 10 11 12 13 14 15 16
619
FTUS41 KPHI 191720
TAFILG
TAF
KILG 191720Z 1918/2018 32012KT 5SM -SHRA BKN025 OVC040
     FM192100 31013G26KT P6SM OVC035
     FM200200 30010G18KT P6SM SCT035
     FM201300 31013G23KT P6SM SCT050=

USA.gov is the U.S. government's official web portal to all federal, state and local government web resources and services.